METAR Data
IDs: Format: Raw Decoded Include TAF

Data at: 1717 UTC 06 Jul 2020

METAR for:KEDC (Austin/Executive Arp, TX, US)
Text:KEDC 061655Z AUTO 19006KT 10SM SCT030 30/23 A2995 RMK AO2
Temperature: 30.0°C ( 86°F)
Dewpoint: 23.0°C ( 73°F) [RH = 66%]
Pressure (altimeter):29.95 inches Hg (1014.3 mb)
Winds:from the S (190 degrees) at 7 MPH (6 knots; 3.1 m/s)
Visibility:10 or more sm (16+ km)
Ceiling:at least 12,000 feet AGL
Clouds: scattered clouds at 3000 feet AGL
QC Flag:automated observation with no human augmentation